Latest Weather Observations for Southern Cross Airport

IDW60801

Issued at 8:03 am WST Sunday 31 July 2016 (issued every 30 minutes, with the page automatically refreshed every 10 minutes)

About weather observations | Map of weather stations | Latest weather observations for WA | Other Formats
Station Details ID: 012320 Name: SOUTHERN CROSS AIRFIELD Lat: -31.24 Lon: 119.36 Height: 347.4 m
Data from the previous 72 hours. | See also: Recent months at Southern Cross Airport
Date/Time
WST
Temp
°C
App
Temp
°C
Dew
Point
°C
Rel
Hum
%
Delta-T
°C
Wind Press
QNH
hPa
Press
MSL
hPa
Rain since
9am
mm
Dir  Spd
km/h
Gust
km/h
Spd
kts
Gust
kts
31/08:00am 10.4 5.8 8.2 86 1.1 WNW 22 32 12 17 1016.1 1016.3 0.0
31/07:30am 9.0 5.1 7.3 89 0.8 NW 17 22 9 12 1015.8 1016.0 0.0
31/07:00am 7.9 3.9 6.5 91 0.7 NW 17 20 9 11 1015.4 1015.6 0.0
31/06:30am 8.1 4.0 6.4 89 0.8 WNW 17 19 9 10 1015.3 1015.5 0.0
31/06:00am 8.6 4.6 6.7 88 0.9 WNW 17 22 9 12 1015.0 1015.2 0.0
31/05:30am 9.1 4.6 6.9 86 1.0 WNW 20 28 11 15 1014.7 1014.9 0.0
31/05:00am 9.0 4.5 6.8 86 1.0 NW 20 24 11 13 1014.4 1014.7 0.0
31/04:30am 9.5 5.0 7.1 85 1.2 WNW 20 26 11 14 1014.8 1015.0 0.0
31/04:00am 9.3 4.7 6.7 84 1.2 WNW 20 24 11 13 1014.8 1015.0 0.0
31/03:30am 9.6 5.0 6.5 81 1.5 WNW 20 28 11 15 1014.8 1015.0 0.0
31/03:00am 9.9 4.9 6.4 79 1.7 WNW 22 30 12 16 1015.2 1015.4 0.0
31/02:30am 10.3 5.3 6.5 77 1.8 WNW 22 30 12 16 1015.3 1015.5 0.0
31/02:00am 10.6 6.0 6.6 76 1.9 WNW 20 24 11 13 1015.8 1016.0 0.0
31/01:30am 10.3 5.7 6.6 78 1.8 WNW 20 24 11 13 1015.8 1016.0 0.0
31/01:00am 9.8 5.3 6.2 78 1.7 WNW 19 22 10 12 1016.0 1016.2 0.0
31/12:30am 9.5 5.4 6.0 79 1.6 WNW 17 20 9 11 1016.0 1016.2 0.0
31/12:00am 9.6 5.8 6.0 78 1.7 WNW 15 19 8 10 1016.3 1016.5 0.0
 
Date/Time
WST
Temp
°C
App
Temp
°C
Dew
Point
°C
Rel
Hum
%
Delta-T
°C
Wind Press
QNH
hPa
Press
MSL
hPa
Rain since
9am
mm
Dir  Spd
km/h
Gust
km/h
Spd
kts
Gust
kts
30/11:30pm 10.5 6.5 6.5 76 1.9 W 17 20 9 11 1016.5 1016.7 0.0
30/11:00pm 10.9 6.9 6.5 74 2.1 W 17 20 9 11 1016.8 1017.1 0.0
30/10:30pm 11.6 7.1 6.3 70 2.5 W 19 28 10 15 1016.8 1017.1 0.0
30/10:00pm 12.4 7.3 6.0 65 3.1 W 22 30 12 16 1016.8 1017.1 0.0
30/09:30pm 11.4 6.9 6.1 70 2.5 WNW 19 24 10 13 1016.9 1017.2 0.0
30/09:00pm 12.0 7.6 6.7 70 2.6 W 19 24 10 13 1017.1 1017.4 0.0
30/08:30pm 12.2 7.6 6.7 69 2.7 W 20 26 11 14 1017.0 1017.3 0.0
30/08:00pm 12.4 7.8 6.5 67 2.9 W 20 28 11 15 1016.8 1017.1 0.0
30/07:30pm 12.9 8.8 6.3 64 3.2 W 17 22 9 12 1016.6 1016.9 0.0
30/07:00pm 11.8 8.8 5.9 67 2.8 W 11 13 6 7 1016.3 1016.5 0.0
30/06:30pm 13.2 9.8 5.9 61 3.5 WNW 13 19 7 10 1015.8 1016.0 0.0
30/06:00pm 14.5 10.3 5.6 55 4.3 W 17 20 9 11 1015.6 1015.8 0.0
30/05:30pm 15.5 10.9 5.7 52 4.8 W 19 24 10 13 1015.5 1015.7 0.0
30/05:00pm 16.6 11.9 6.1 50 5.2 WNW 20 28 11 15 1015.2 1015.4 0.0
30/04:30pm 17.5 12.9 6.7 49 5.5 WNW 20 28 11 15 1015.1 1015.3 0.0
30/04:00pm 18.0 12.7 6.8 48 5.7 WNW 24 37 13 20 1015.0 1015.2 0.0
30/03:30pm 18.1 12.6 6.0 45 6.0 WNW 24 39 13 21 1015.0 1015.2 0.0
30/03:00pm 18.1 12.4 6.6 47 5.8 W 26 33 14 18 1015.1 1015.3 0.0
30/02:30pm 18.5 14.2 7.9 50 5.5 WNW 20 30 11 16 1015.2 1015.4 0.0
30/02:00pm 18.2 14.0 7.3 49 5.6 WNW 19 32 10 17 1015.3 1015.5 0.0
30/01:30pm 18.0 12.8 7.1 49 5.6 WNW 24 33 13 18 1015.6 1015.8 0.0
30/01:00pm 17.5 11.9 7.0 50 5.3 W 26 37 14 20 1016.0 1016.2 0.0
30/12:30pm 17.3 12.1 7.4 52 5.1 W 24 37 13 20 1016.4 1016.6 0.0
30/12:00pm 17.2 12.1 7.8 54 4.8 W 24 33 13 18 1017.0 1017.3 0.0
30/11:30am 16.4 11.0 8.1 58 4.3 WSW 26 32 14 17 1017.4 1017.7 0.0
30/11:00am 16.8 12.7 8.8 59 4.2 W 20 30 11 16 1017.8 1018.0 0.0
30/10:30am 16.0 11.3 9.2 64 3.6 W 24 33 13 18 1018.3 1018.5 0.0
30/10:00am 14.9 11.3 9.7 71 2.7 WSW 19 26 10 14 1018.6 1018.8 0.0
30/09:30am 15.1 12.9 10.9 76 2.3 WSW 13 17 7 9 1018.5 1018.7 0.0
30/09:00am 14.6 11.7 11.0 79 1.9 SW 17 24 9 13 1018.3 1018.5 0.0
30/08:30am 13.7 11.7 11.4 86 1.2 WSW 13 17 7 9 1018.2 1018.4 0.0
30/08:00am 13.9 12.0 11.9 88 1.1 W 13 19 7 10 1017.9 1018.1 0.0
30/07:30am 13.9 12.0 11.9 88 1.1 W 13 17 7 9 1017.7 1017.9 0.0
30/07:00am 13.7 11.8 11.8 88 1.0 WNW 13 15 7 8 1017.2 1017.5 0.0
30/06:30am 13.8 12.7 11.8 88 1.1 W 9 13 5 7 1016.9 1017.2 0.0
30/06:00am 14.1 12.6 12.0 87 1.2 W 11 15 6 8 1016.6 1016.9 0.0
30/05:30am 14.2 11.9 11.9 86 1.3 W 15 19 8 10 1016.3 1016.5 0.0
30/05:00am 14.7 11.8 12.2 85 1.4 W 19 28 10 15 1016.4 1016.6 0.0
30/04:30am 14.6 11.5 12.1 85 1.4 WNW 20 28 11 15 1016.1 1016.3 0.0
30/04:00am 14.7 11.5 12.0 84 1.5 WNW 20 28 11 15 1015.8 1016.0 0.0
30/03:30am 15.2 12.1 12.3 83 1.6 WNW 20 26 11 14 1015.8 1016.0 0.0
30/03:00am 16.0 12.6 12.6 80 1.9 W 22 28 12 15 1015.8 1016.0 0.0
30/02:30am 16.1 13.1 12.5 79 2.0 WNW 20 26 11 14 1015.9 1016.1 0.0
30/02:00am 15.8 12.8 12.0 78 2.1 WNW 19 24 10 13 1015.7 1015.9 0.0
30/01:30am 16.1 13.1 11.9 76 2.3 WNW 19 26 10 14 1015.7 1015.9 0.0
30/01:00am 16.5 12.8 11.6 73 2.7 WNW 22 28 12 15 1015.8 1016.0 0.0
30/12:30am 16.9 13.2 11.4 70 3.0 WNW 22 32 12 17 1015.7 1015.9 0.0
30/12:00am 17.2 14.0 11.2 68 3.3 WNW 19 24 10 13 1015.8 1016.0 0.0
 
Date/Time
WST
Temp
°C
App
Temp
°C
Dew
Point
°C
Rel
Hum
%
Delta-T
°C
Wind Press
QNH
hPa
Press
MSL
hPa
Rain since
9am
mm
Dir  Spd
km/h
Gust
km/h
Spd
kts
Gust
kts
29/11:30pm 17.4 14.0 11.2 67 3.4 WNW 20 28 11 15 1015.8 1016.0 0.0
29/11:00pm 17.6 13.3 10.9 65 3.7 WNW 24 32 13 17 1015.9 1016.1 0.0
29/10:30pm 18.0 14.5 10.9 63 3.9 WNW 20 28 11 15 1016.1 1016.3 0.0
29/10:00pm 18.6 14.3 10.9 61 4.2 WNW 24 32 13 17 1015.9 1016.1 0.0
29/09:30pm 18.8 14.5 10.9 60 4.4 WNW 24 35 13 19 1015.8 1016.0 0.0
29/09:00pm 19.3 15.0 10.6 57 4.8 WNW 24 33 13 18 1015.7 1015.9 0.0
29/08:30pm 19.7 15.9 11.2 58 4.7 WNW 22 28 12 15 1015.6 1015.8 0.0
29/08:00pm 20.5 15.5 10.9 54 5.3 WNW 28 39 15 21 1015.2 1015.4 0.0
29/07:30pm 20.8 15.0 10.9 53 5.5 WNW 32 43 17 23 1014.9 1015.1 0.0
29/07:00pm 21.1 16.2 11.2 53 5.6 WNW 28 37 15 20 1014.7 1014.9 0.0
29/06:30pm 20.7 17.2 10.8 53 5.5 NW 20 28 11 15 1014.1 1014.4 0.0
29/06:00pm 20.7 17.7 10.8 53 5.5 WNW 17 22 9 12 1013.7 1013.9 0.0
29/05:30pm 21.1 17.7 11.4 54 5.5 WNW 20 24 11 13 1013.5 1013.7 0.0
29/05:00pm 22.0 18.2 11.1 50 6.1 WNW 22 32 12 17 1013.3 1013.5 0.0
29/04:30pm 22.3 18.3 11.7 51 6.0 NW 24 33 13 18 1013.4 1013.6 0.0
29/04:00pm 23.2 18.0 11.6 48 6.6 WNW 30 39 16 21 1013.5 1013.7 0.0
29/03:30pm 23.2 16.9 10.9 46 6.9 NW 35 46 19 25 1013.4 1013.6 0.0
29/03:00pm 23.7 18.0 11.1 45 7.1 WNW 32 43 17 23 1013.5 1013.7 0.0
29/02:38pm 23.8 18.8 10.8 44 7.3 NW 28 48 15 26 1013.4 1013.6 0.0
29/02:30pm 23.2 17.6 10.3 44 7.2 NW 30 39 16 21 1013.5 1013.7 0.0
29/02:00pm 23.2 18.2 10.9 46 6.9 NW 28 37 15 20 1013.8 1014.0 0.0
29/01:30pm 22.7 18.3 10.5 46 6.8 NW 24 33 13 18 1014.2 1014.5 0.0
29/01:00pm 21.1 16.9 9.7 48 6.2 NNW 22 33 12 18 1014.7 1014.9 0.0
29/12:30pm 20.4 16.2 9.6 50 5.9 NW 22 30 12 16 1015.5 1015.7 0.0
29/12:00pm 19.7 16.2 10.1 54 5.2 NNW 19 26 10 14 1016.2 1016.4 0.0
29/11:30am 19.1 15.6 10.1 56 4.9 NNW 19 24 10 13 1017.0 1017.3 0.0
29/11:00am 17.8 15.1 10.4 62 4.0 N 15 19 8 10 1017.7 1017.9 0.0
29/10:30am 16.1 14.3 9.3 64 3.6 N 9 11 5 6 1018.1 1018.3 0.0
29/10:00am 14.8 13.2 7.8 63 3.5 NNW 6 7 3 4 1018.4 1018.6 0.0
29/09:30am 13.4 12.6 8.0 70 2.7 W 2 6 1 3 1018.7 1018.9 0.0
29/09:00am 12.2 11.6 7.3 72 2.4 CALM 0 0 0 0 1018.7 1018.9 0.0
29/08:30am 11.3 10.6 7.0 75 2.1 CALM 0 0 0 0 1018.7 1018.9 0.0
29/08:00am 10.1 9.5 7.3 83 1.4 CALM 0 0 0 0 1018.7 1018.9 0.0
29/07:30am 9.4 7.9 6.7 83 1.3 N 4 6 2 3 1018.6 1018.8 0.0
29/07:00am 9.0 7.1 6.8 86 1.0 NNE 6 9 3 5 1018.3 1018.5 0.0
29/06:30am 8.3 7.5 6.6 89 0.8 CALM 0 0 0 0 1018.4 1018.6 0.0
29/06:00am 8.3 7.4 6.1 86 1.0 CALM 0 0 0 0 1018.3 1018.5 0.0
29/05:30am 7.9 7.0 5.9 87 0.9 CALM 0 0 0 0 1018.2 1018.4 0.0
29/05:00am 7.8 6.9 5.9 88 0.9 CALM 0 0 0 0 1018.1 1018.3 0.0
29/04:30am 7.6 6.6 5.6 87 0.9 CALM 0 0 0 0 1018.2 1018.4 0.0
29/04:00am 7.4 6.4 5.4 87 0.9 CALM 0 0 0 0 1018.3 1018.5 0.0
29/03:30am 8.0 7.1 6.0 87 0.9 CALM 0 0 0 0 1018.4 1018.6 0.0
29/03:00am 8.5 7.7 6.3 86 1.0 CALM 0 0 0 0 1018.5 1018.7 0.0
29/02:30am 9.2 8.6 7.2 87 1.0 CALM 0 0 0 0 1018.9 1019.1 0.0
29/02:00am 9.9 9.4 7.7 86 1.1 CALM 0 0 0 0 1019.1 1019.4 0.0
29/01:30am 10.9 10.5 8.1 83 1.4 CALM 0 0 0 0 1019.5 1019.8 0.0
29/01:00am 10.9 10.4 7.8 81 1.5 CALM 0 0 0 0 1019.6 1019.9 0.0
29/12:30am 10.9 10.4 7.8 81 1.5 CALM 0 0 0 0 1019.8 1020.1 0.0
29/12:00am 10.7 8.9 7.9 83 1.4 SSW 7 9 4 5 1020.0 1020.3 0.0
 
Date/Time
WST
Temp
°C
App
Temp
°C
Dew
Point
°C
Rel
Hum
%
Delta-T
°C
Wind Press
QNH
hPa
Press
MSL
hPa
Rain since
9am
mm
Dir  Spd
km/h
Gust
km/h
Spd
kts
Gust
kts
28/11:30pm 11.2 9.8 7.3 77 1.9 SSW 4 6 2 3 1020.2 1020.5 0.0
28/11:00pm 11.3 10.8 8.0 80 1.6 CALM 0 4 0 2 1020.3 1020.6 0.0
28/10:30pm 11.6 11.3 8.6 82 1.5 CALM 0 0 0 0 1020.5 1020.8 0.0
28/10:00pm 11.6 11.3 8.6 82 1.5 CALM 0 0 0 0 1020.8 1021.0 0.0
28/09:30pm 12.9 12.4 8.0 72 2.5 CALM 0 0 0 0 1021.1 1021.3 0.0
28/09:00pm 13.1 12.8 8.6 74 2.3 CALM 0 0 0 0 1021.4 1021.6 0.0
28/08:30pm 13.0 11.9 8.5 74 2.3 S 4 6 2 3 1021.3 1021.5 0.0
28/08:00pm 13.7 13.1 9.0 73 2.4 ESE 2 6 1 3 1021.3 1021.5 0.0
28/07:30pm 13.5 12.8 6.8 64 3.3 CALM 0 0 0 0 1021.3 1021.5 0.0
28/07:00pm 13.8 12.2 6.4 61 3.6 SE 4 6 2 3 1021.1 1021.3 0.0
28/06:30pm 14.7 12.1 6.0 56 4.2 SE 9 9 5 5 1021.1 1021.3 0.0
28/06:00pm 16.1 13.5 4.2 45 5.6 SE 7 9 4 5 1020.5 1020.8 0.0
28/05:30pm 17.8 15.4 5.1 43 6.2 SW 7 7 4 4 1020.5 1020.8 0.0
28/05:00pm 19.1 15.8 4.8 39 7.0 WSW 11 13 6 7 1020.3 1020.6 0.0
28/04:30pm 20.9 18.0 1.2 27 9.1 NW 6 9 3 5 1020.1 1020.4 0.0
28/04:00pm 20.5 17.8 5.7 38 7.5 NW 9 13 5 7 1020.3 1020.6 0.0
28/03:30pm 21.1 16.8 3.3 31 8.6 NNW 15 19 8 10 1020.2 1020.5 0.0
28/03:00pm 21.6 17.7 3.3 30 8.9 NNW 13 17 7 9 1020.4 1020.7 0.0
28/02:30pm 21.0 16.5 2.3 29 8.9 NNW 15 20 8 11 1020.3 1020.6 0.0
28/02:00pm 20.2 16.5 4.3 35 7.8 NW 13 17 7 9 1020.4 1020.7 0.0
28/01:30pm 20.2 15.0 3.4 33 8.1 NNW 20 26 11 14 1020.8 1021.0 0.0
28/01:00pm 20.6 15.1 4.2 34 8.0 NNW 22 32 12 17 1020.9 1021.1 0.0
28/12:30pm 18.6 14.9 6.4 45 6.2 N 15 20 8 11 1021.5 1021.8 0.0
28/12:00pm 18.0 13.7 5.2 43 6.3 N 17 20 9 11 1022.4 1022.7 0.0
28/11:30am 16.1 12.2 5.4 49 5.2 N 15 19 8 10 1023.0 1023.3 0.0
28/11:00am 15.4 11.5 5.3 51 4.9 N 15 20 8 11 1023.4 1023.7 0.0
28/10:30am 14.8 11.4 5.9 55 4.3 N 13 19 7 10 1024.2 1024.5 0.0
28/10:00am 15.0 10.8 5.8 54 4.5 NNW 17 20 9 11 1024.5 1024.8 0.0
28/09:30am 13.0 9.6 5.9 62 3.4 N 13 19 7 10 1024.5 1024.8 0.0
28/09:00am 10.5 10.1 8.3 86 1.1 CALM 0 0 0 0 1024.5 1024.8 0.0
28/08:30am 8.2 7.4 6.7 90 0.7 CALM 0 0 0 0 1024.3 1024.6 0.0

Other Formats:

Comma delimited format used in spreadsheet applications
http://www.bom.gov.au/fwo/IDW60801/IDW60801.95634.axf

JavaScript Object Notation format (JSON) in row-major order
http://www.bom.gov.au/fwo/IDW60801/IDW60801.95634.json